createdAt,value
2019-04-26T00:02:48.229Z,14.90
2019-04-26T00:05:55.816Z,14.80
2019-04-26T00:09:18.823Z,14.70
2019-04-26T00:12:39.138Z,14.60
2019-04-26T00:15:56.671Z,14.60
2019-04-26T00:19:04.218Z,14.70
2019-04-26T00:22:12.983Z,14.60
2019-04-26T00:25:20.857Z,14.60
2019-04-26T00:28:28.387Z,14.60
2019-04-26T00:31:35.997Z,14.60
2019-04-26T00:34:43.913Z,14.60
2019-04-26T00:37:51.513Z,14.50
2019-04-26T00:40:59.961Z,14.50
2019-04-26T00:44:07.546Z,14.40
2019-04-26T00:47:16.973Z,14.30
2019-04-26T00:50:24.927Z,14.30
2019-04-26T00:53:35.578Z,14.10
2019-04-26T00:56:43.490Z,14.10
2019-04-26T00:59:52.216Z,14.00
2019-04-26T01:03:00.051Z,13.90
2019-04-26T01:06:10.210Z,13.80
2019-04-26T01:09:17.699Z,13.80
2019-04-26T01:12:26.027Z,13.90
2019-04-26T01:15:33.730Z,13.90
2019-04-26T01:18:41.924Z,13.80
2019-04-26T01:21:53.921Z,13.80
2019-04-26T01:25:03.476Z,13.80
2019-04-26T01:28:14.943Z,13.70
2019-04-26T01:31:22.530Z,13.60
2019-04-26T01:34:31.111Z,13.60
2019-04-26T01:37:41.861Z,13.50
2019-04-26T01:40:51.814Z,13.50
2019-04-26T01:44:10.830Z,13.30
2019-04-26T01:47:20.762Z,13.30
2019-04-26T01:50:31.670Z,13.20
2019-04-26T01:53:39.359Z,13.20
2019-04-26T01:56:48.577Z,13.20
2019-04-26T02:00:00.335Z,13.20
2019-04-26T02:03:16.932Z,13.20
2019-04-26T02:06:28.772Z,13.20
2019-04-26T02:09:35.387Z,13.30
2019-04-26T02:12:46.532Z,13.20
2019-04-26T02:15:54.245Z,13.30
2019-04-26T02:19:01.922Z,13.30
2019-04-26T02:22:34.146Z,13.50
2019-04-26T02:25:41.711Z,13.50
2019-04-26T02:28:50.551Z,13.60
2019-04-26T02:32:05.436Z,13.70
2019-04-26T02:35:13.151Z,13.70
2019-04-26T02:38:22.414Z,13.70
2019-04-26T02:41:32.059Z,13.60
2019-04-26T02:44:51.572Z,13.60
2019-04-26T02:48:23.481Z,13.60
2019-04-26T02:51:38.196Z,13.50
2019-04-26T02:55:02.768Z,13.40
2019-04-26T02:58:12.237Z,13.30
2019-04-26T03:01:20.176Z,13.20
2019-04-26T03:04:30.968Z,13.10
2019-04-26T03:07:45.645Z,13.00
2019-04-26T03:11:07.298Z,13.10
2019-04-26T03:14:37.063Z,13.00
2019-04-26T03:18:00.181Z,12.80
2019-04-26T03:21:15.686Z,12.80
2019-04-26T03:24:28.577Z,12.60
2019-04-26T03:28:12.359Z,12.50
2019-04-26T03:31:52.455Z,12.60
2019-04-26T03:35:22.180Z,12.50
2019-04-26T03:38:43.633Z,12.60
2019-04-26T03:42:22.406Z,12.60
2019-04-26T03:45:53.658Z,12.70
2019-04-26T03:49:36.131Z,12.70
2019-04-26T03:53:21.126Z,12.70
2019-04-26T03:56:45.515Z,12.70
2019-04-26T04:00:41.331Z,12.80
2019-04-26T04:03:57.465Z,12.80
2019-04-26T04:07:07.695Z,12.80
2019-04-26T04:10:20.319Z,12.80
2019-04-26T04:14:02.728Z,12.80
2019-04-26T04:17:29.951Z,12.90
2019-04-26T04:21:38.853Z,13.00
2019-04-26T04:24:53.296Z,13.00
2019-04-26T04:28:06.855Z,13.10
2019-04-26T04:31:20.171Z,13.20
2019-04-26T04:34:40.126Z,13.70
2019-04-26T04:38:08.641Z,13.90
2019-04-26T04:41:21.719Z,13.90
2019-04-26T04:44:39.024Z,13.80
2019-04-26T04:48:37.636Z,13.70
2019-04-26T04:52:11.956Z,13.60
2019-04-26T04:55:25.942Z,13.50
2019-04-26T04:58:42.976Z,13.70
2019-04-26T05:02:21.913Z,14.30
2019-04-26T05:05:56.992Z,14.40
2019-04-26T05:09:13.871Z,14.50
2019-04-26T05:12:34.973Z,15.40
2019-04-26T05:16:40.434Z,16.10
2019-04-26T05:20:38.348Z,16.20
2019-04-26T05:24:05.306Z,16.30
2019-04-26T05:27:58.515Z,17.10
2019-04-26T05:31:30.939Z,17.60
2019-04-26T05:34:50.980Z,18.50
2019-04-26T05:38:18.057Z,19.10
2019-04-26T05:41:39.219Z,19.20
2019-04-26T05:46:06.554Z,19.00
2019-04-26T05:50:03.792Z,19.30
2019-04-26T05:54:14.900Z,18.40
2019-04-26T05:58:10.013Z,18.90
2019-04-26T06:02:30.828Z,19.40
2019-04-26T06:06:13.805Z,19.90
2019-04-26T06:10:05.336Z,20.20
2019-04-26T06:13:38.996Z,20.30
2019-04-26T06:17:44.280Z,20.90
2019-04-26T06:21:11.370Z,21.80
2019-04-26T06:24:38.330Z,22.70
2019-04-26T06:28:06.587Z,23.30
2019-04-26T06:31:39.174Z,24.20
2019-04-26T06:35:01.664Z,24.90
2019-04-26T06:39:02.412Z,25.70
2019-04-26T06:43:03.686Z,25.60
2019-04-26T06:47:03.905Z,24.60
2019-04-26T06:50:32.091Z,24.00
2019-04-26T06:53:47.159Z,23.00
2019-04-26T06:57:59.994Z,22.70
2019-04-26T07:01:46.106Z,22.90
2019-04-26T07:05:23.553Z,22.90
2019-04-26T07:08:57.760Z,22.70
2019-04-26T07:12:36.485Z,23.00
2019-04-26T07:16:22.839Z,23.00
2019-04-26T07:20:25.130Z,22.60
2019-04-26T07:24:23.650Z,22.20
2019-04-26T07:28:03.644Z,23.10
2019-04-26T07:31:38.794Z,24.00
2019-04-26T07:35:00.973Z,24.00
2019-04-26T07:39:29.673Z,23.80
2019-04-26T07:42:56.555Z,23.50
2019-04-26T07:46:45.626Z,23.70
2019-04-26T07:50:41.456Z,24.90
2019-04-26T07:54:19.164Z,24.60
2019-04-26T07:57:48.659Z,24.20
2019-04-26T08:01:17.098Z,25.00
2019-04-26T08:04:34.439Z,25.00
2019-04-26T08:07:47.538Z,24.90
2019-04-26T08:11:06.106Z,25.50
2019-04-26T08:14:17.910Z,25.20
2019-04-26T08:17:40.141Z,25.70
2019-04-26T08:21:06.831Z,25.70
2019-04-26T08:24:21.478Z,24.80
2019-04-26T08:27:32.537Z,26.20
2019-04-26T08:30:46.237Z,27.10
2019-04-26T08:34:01.355Z,27.10
2019-04-26T08:37:21.066Z,26.50
2019-04-26T08:40:31.472Z,26.60
2019-04-26T08:44:14.715Z,27.60
2019-04-26T08:47:57.155Z,27.80
2019-04-26T08:51:11.377Z,27.10
2019-04-26T08:54:24.423Z,27.10
2019-04-26T08:57:35.559Z,26.80
2019-04-26T09:01:10.472Z,27.50
2019-04-26T09:04:39.476Z,28.90
2019-04-26T09:07:49.626Z,28.30
2019-04-26T09:11:00.935Z,28.60
2019-04-26T09:14:09.419Z,26.90
2019-04-26T09:17:17.054Z,27.70
2019-04-26T09:20:28.932Z,28.10
2019-04-26T09:23:52.178Z,28.10
2019-04-26T09:27:20.974Z,27.00
2019-04-26T09:30:34.368Z,26.50
2019-04-26T09:33:51.439Z,25.70
2019-04-26T09:36:59.053Z,25.60
2019-04-26T09:40:10.409Z,25.80
2019-04-26T09:43:26.598Z,26.10
2019-04-26T09:47:04.975Z,26.60
2019-04-26T09:50:26.048Z,27.30
2019-04-26T09:53:33.559Z,26.90
2019-04-26T09:56:41.508Z,26.70
2019-04-26T09:59:49.043Z,26.60
2019-04-26T10:02:58.700Z,27.00
2019-04-26T10:06:08.142Z,27.60
2019-04-26T10:09:21.398Z,26.70
2019-04-26T10:12:39.938Z,26.50
2019-04-26T10:15:58.097Z,26.50
2019-04-26T10:19:09.347Z,27.40
2019-04-26T10:22:18.775Z,27.50
2019-04-26T10:25:28.625Z,26.80
2019-04-26T10:28:36.161Z,26.80
2019-04-26T10:31:47.566Z,26.70
2019-04-26T10:34:53.285Z,27.50
2019-04-26T10:38:00.952Z,28.00
2019-04-26T10:41:09.212Z,27.10
2019-04-26T10:44:16.910Z,27.20
2019-04-26T10:47:26.520Z,27.60
2019-04-26T10:50:34.454Z,27.90
2019-04-26T10:54:07.716Z,27.60
2019-04-26T10:57:27.432Z,27.30
2019-04-26T11:00:39.174Z,28.00
2019-04-26T11:03:47.840Z,27.30
2019-04-26T11:06:58.107Z,27.00
2019-04-26T11:10:06.289Z,27.40
2019-04-26T11:13:13.867Z,27.70
2019-04-26T11:16:21.708Z,28.00
2019-04-26T11:19:32.009Z,28.10
2019-04-26T11:22:39.556Z,28.20
2019-04-26T11:25:47.168Z,28.20
2019-04-26T11:28:55.655Z,27.90
2019-04-26T11:32:04.267Z,27.50
2019-04-26T11:35:12.122Z,27.50
2019-04-26T11:38:21.754Z,27.20
2019-04-26T11:41:29.084Z,26.80
2019-04-26T11:44:37.678Z,26.00
2019-04-26T11:47:55.512Z,26.00
2019-04-26T11:50:54.284Z,26.10
2019-04-26T11:54:01.957Z,26.10
2019-04-26T11:57:12.183Z,26.20
2019-04-26T12:00:33.104Z,26.20
2019-04-26T12:03:42.965Z,25.80
2019-04-26T12:06:57.619Z,25.30
2019-04-26T12:10:09.832Z,25.60
2019-04-26T12:13:15.611Z,25.50
2019-04-26T12:16:23.172Z,25.30
2019-04-26T12:19:30.786Z,25.30
2019-04-26T12:22:39.402Z,25.00
2019-04-26T12:25:48.225Z,25.20
2019-04-26T12:28:55.844Z,25.40
2019-04-26T12:32:03.449Z,25.40
2019-04-26T12:35:11.174Z,25.80
2019-04-26T12:38:20.342Z,26.30
2019-04-26T12:41:39.769Z,26.10
2019-04-26T12:44:44.960Z,26.70
2019-04-26T12:47:55.376Z,27.10
2019-04-26T12:51:02.940Z,27.20
2019-04-26T12:54:10.805Z,27.30
2019-04-26T12:57:18.847Z,26.80
2019-04-26T13:00:32.919Z,26.50
2019-04-26T13:03:40.142Z,26.30
2019-04-26T13:06:56.951Z,26.20
2019-04-26T13:10:22.221Z,26.20
2019-04-26T13:13:43.355Z,26.10
2019-04-26T13:17:13.424Z,26.10
2019-04-26T13:20:24.457Z,25.80
2019-04-26T13:23:31.283Z,25.80
2019-04-26T13:26:39.026Z,26.10
2019-04-26T13:29:48.236Z,26.30
2019-04-26T13:32:55.904Z,26.40
2019-04-26T13:36:03.547Z,26.40
2019-04-26T13:39:17.464Z,26.50
2019-04-26T13:42:23.081Z,26.60
2019-04-26T13:45:39.144Z,26.40
2019-04-26T13:49:14.272Z,25.90
2019-04-26T13:52:22.826Z,25.80
2019-04-26T13:55:30.597Z,25.70
2019-04-26T13:58:39.368Z,25.70
2019-04-26T14:01:47.453Z,25.70
2019-04-26T14:04:55.086Z,25.80
2019-04-26T14:08:02.705Z,25.90
2019-04-26T14:11:11.510Z,25.90
2019-04-26T14:14:20.350Z,25.90
2019-04-26T14:17:29.708Z,26.00
2019-04-26T14:20:37.201Z,26.20
2019-04-26T14:23:53.098Z,26.20
2019-04-26T14:27:10.356Z,25.90
2019-04-26T14:30:17.836Z,25.90
2019-04-26T14:33:27.147Z,26.10
2019-04-26T14:36:35.169Z,26.00
2019-04-26T14:39:50.693Z,25.60
2019-04-26T14:43:06.109Z,25.30
2019-04-26T14:46:04.287Z,25.40
2019-04-26T14:49:12.061Z,25.40
2019-04-26T14:52:19.690Z,25.40
2019-04-26T14:55:27.240Z,25.40
2019-04-26T14:58:35.881Z,25.60
2019-04-26T15:02:02.524Z,25.80
2019-04-26T15:05:30.131Z,25.90
2019-04-26T15:08:40.534Z,25.90
2019-04-26T15:11:55.349Z,26.10
2019-04-26T15:14:57.146Z,26.10
2019-04-26T15:18:05.265Z,25.90
2019-04-26T15:21:14.269Z,25.70
2019-04-26T15:24:22.621Z,25.70
2019-04-26T15:27:32.156Z,25.60
2019-04-26T15:30:46.398Z,25.50
2019-04-26T15:33:52.831Z,25.30
2019-04-26T15:37:00.854Z,25.20
2019-04-26T15:40:16.749Z,25.30
2019-04-26T15:43:32.711Z,25.30
2019-04-26T15:47:05.864Z,25.40
2019-04-26T15:50:29.824Z,25.30
2019-04-26T15:53:37.570Z,25.30
2019-04-26T15:56:45.250Z,25.30
2019-04-26T15:59:54.463Z,25.30
2019-04-26T16:03:07.143Z,25.30
2019-04-26T16:06:13.577Z,25.30
2019-04-26T16:09:22.987Z,25.40
2019-04-26T16:12:32.106Z,25.40
2019-04-26T16:15:43.618Z,25.30
2019-04-26T16:18:54.889Z,25.40
2019-04-26T16:21:59.422Z,25.30
2019-04-26T16:25:07.828Z,25.30
2019-04-26T16:28:38.261Z,25.20
2019-04-26T16:32:05.360Z,25.20
2019-04-26T16:35:13.468Z,25.10
2019-04-26T16:38:35.362Z,24.90
2019-04-26T16:41:43.235Z,24.80
2019-04-26T16:44:53.125Z,24.80
2019-04-26T16:48:02.148Z,24.60
2019-04-26T16:51:10.100Z,24.60
2019-04-26T16:54:21.881Z,24.50
2019-04-26T16:57:27.556Z,24.40
2019-04-26T17:00:50.065Z,24.30
2019-04-26T17:03:48.154Z,24.20
2019-04-26T17:06:54.844Z,24.20
2019-04-26T17:10:03.159Z,24.00
2019-04-26T17:13:13.273Z,24.00
2019-04-26T17:16:22.415Z,23.80
2019-04-26T17:19:34.250Z,23.70
2019-04-26T17:22:59.394Z,23.60
2019-04-26T17:26:29.325Z,23.50
2019-04-26T17:29:36.783Z,23.40
2019-04-26T17:32:47.604Z,23.30
2019-04-26T17:35:53.908Z,23.20
2019-04-26T17:39:01.645Z,23.10
2019-04-26T17:42:10.972Z,23.00
2019-04-26T17:45:21.270Z,22.90
2019-04-26T17:48:30.519Z,22.80
2019-04-26T17:51:42.394Z,22.60
2019-04-26T17:54:49.623Z,22.50
2019-04-26T17:58:11.407Z,22.40
2019-04-26T18:01:08.134Z,22.30
2019-04-26T18:04:16.050Z,22.30
2019-04-26T18:07:39.717Z,22.30
2019-04-26T18:10:35.603Z,22.20
2019-04-26T18:13:43.246Z,22.10
2019-04-26T18:17:01.399Z,22.10
2019-04-26T18:20:41.408Z,21.90
2019-04-26T18:23:54.729Z,21.80
2019-04-26T18:27:00.574Z,21.80
2019-04-26T18:30:13.560Z,21.70
2019-04-26T18:33:22.502Z,21.60
2019-04-26T18:36:31.942Z,21.50
2019-04-26T18:39:38.455Z,21.50
2019-04-26T18:42:46.106Z,21.40
2019-04-26T18:45:58.643Z,21.30
2019-04-26T18:49:05.302Z,21.30
2019-04-26T18:52:13.669Z,21.20
2019-04-26T18:55:29.280Z,21.10
2019-04-26T18:58:37.926Z,21.10
2019-04-26T19:01:46.900Z,21.00
2019-04-26T19:04:57.300Z,20.90
2019-04-26T19:08:07.355Z,20.90
2019-04-26T19:11:15.323Z,20.80
2019-04-26T19:15:03.313Z,20.70
2019-04-26T19:18:11.832Z,20.70
2019-04-26T19:21:40.257Z,20.60
2019-04-26T19:24:49.366Z,20.60
2019-04-26T19:27:58.948Z,20.50
2019-04-26T19:31:06.693Z,20.60
2019-04-26T19:34:14.504Z,20.60
2019-04-26T19:37:23.419Z,20.60
2019-04-26T19:40:31.299Z,20.60
2019-04-26T19:43:42.960Z,20.50
2019-04-26T19:47:08.689Z,20.50
2019-04-26T19:50:28.519Z,20.40
2019-04-26T19:53:47.303Z,20.30
2019-04-26T19:57:06.209Z,20.30
2019-04-26T20:00:15.399Z,20.20
2019-04-26T20:03:23.333Z,20.20
2019-04-26T20:06:32.263Z,20.20
2019-04-26T20:09:41.981Z,20.10
2019-04-26T20:12:52.750Z,20.10
2019-04-26T20:16:02.716Z,20.10
2019-04-26T20:19:15.134Z,20.00
2019-04-26T20:22:22.159Z,19.90
2019-04-26T20:25:29.966Z,19.80
2019-04-26T20:28:38.213Z,19.80
2019-04-26T20:32:21.173Z,19.80
2019-04-26T20:35:28.388Z,19.70
2019-04-26T20:38:45.590Z,19.70
2019-04-26T20:41:46.086Z,19.70
2019-04-26T20:44:54.157Z,19.70
2019-04-26T20:48:02.390Z,19.70
2019-04-26T20:51:10.844Z,19.70
2019-04-26T20:54:19.704Z,19.60
2019-04-26T20:57:31.347Z,19.60
2019-04-26T21:00:37.919Z,19.50
2019-04-26T21:03:47.207Z,19.50
2019-04-26T21:06:54.925Z,19.40
2019-04-26T21:10:05.158Z,19.30
2019-04-26T21:13:15.314Z,19.30
2019-04-26T21:16:23.145Z,19.20
2019-04-26T21:19:32.752Z,19.10
2019-04-26T21:22:41.929Z,19.10
2019-04-26T21:26:24.374Z,19.10
2019-04-26T21:29:43.518Z,19.10
2019-04-26T21:33:06.431Z,19.10
2019-04-26T21:36:25.023Z,19.10
2019-04-26T21:39:39.399Z,19.10
2019-04-26T21:42:47.335Z,19.10
2019-04-26T21:46:07.105Z,19.10
2019-04-26T21:49:05.421Z,19.00
2019-04-26T21:52:13.643Z,19.00
2019-04-26T21:55:21.505Z,18.80
2019-04-26T21:58:29.326Z,18.80
2019-04-26T22:01:37.171Z,18.60
2019-04-26T22:04:46.351Z,18.50
2019-04-26T22:07:54.223Z,18.40
2019-04-26T22:11:03.570Z,18.40
2019-04-26T22:14:20.065Z,18.30
2019-04-26T22:17:36.258Z,18.20
2019-04-26T22:21:00.068Z,18.20
2019-04-26T22:24:13.269Z,18.10
2019-04-26T22:27:21.853Z,18.10
2019-04-26T22:30:30.415Z,18.00
2019-04-26T22:33:38.679Z,18.00
2019-04-26T22:36:46.671Z,18.00
2019-04-26T22:39:54.951Z,18.00
2019-04-26T22:43:27.305Z,18.00
2019-04-26T22:47:03.628Z,18.10
2019-04-26T22:50:15.645Z,18.00
2019-04-26T22:53:25.863Z,18.10
2019-04-26T22:56:32.577Z,18.10
2019-04-26T22:59:43.335Z,18.00
2019-04-26T23:02:50.139Z,18.00
2019-04-26T23:05:57.743Z,18.00
2019-04-26T23:09:07.354Z,17.90
2019-04-26T23:12:34.504Z,17.90
2019-04-26T23:16:08.574Z,17.90
2019-04-26T23:19:25.046Z,17.80
2019-04-26T23:22:35.258Z,17.70
2019-04-26T23:25:43.478Z,17.60
2019-04-26T23:28:51.141Z,17.60
2019-04-26T23:31:58.799Z,17.50
2019-04-26T23:35:06.508Z,17.40
2019-04-26T23:38:13.943Z,17.30
2019-04-26T23:41:23.445Z,17.20
2019-04-26T23:44:30.711Z,17.10
2019-04-26T23:47:39.060Z,17.10
2019-04-26T23:50:47.122Z,17.00
2019-04-26T23:53:57.686Z,17.00
2019-04-26T23:57:03.836Z,16.90
